메인 페이지
METAR-TAF:

METAR-TAF

공항 :

칭다오 류팅 국제공항

칭다오, 중국

위도: 36-04N, 경도: 120-20E, 고도: 77m

현재 날씨관측

예보는 10분 전, 17:00시(UTC)에 발표되었습니다.
여러 방향의 바람 2kt
온도 16°C
습도 94%
기압 1011 hPa
시정: 3500m
박무

METAR: ZSQD 311700Z VRB01MPS 3500 BR NSC 16/15 Q1011 NOSIG

시각: 01:10 (17:10 UTC)

예보

예보는 8 시간 5분 전, 09:05시(UTC)에 발표되었습니다.
예보 대상 시간: 31일 12시부터 01일 12시까지 (UTC)
12kt
시정 10km 이상
1500m 미만 상공 구름 및 적란운 없음
전환 중
31일 14시부터 31일 15시까지 (UTC)
동북동6kt
전환 중
01일 01시부터 01일 02시까지 (UTC)
12kt

TAF: ZSQD 310905Z 3112/0112 18006MPS CAVOK TX26/0106Z TN16/3121Z BECMG 3114/3115 06003MPS BECMG 0101/0102 18006MPS

4,000개 이상의 공항 관측 자료 및 예보 (METAR 및 TAF 보고).

지도상에서 검색 가능한 기상관측소가 노란 점과 빨간 점으로 표시되어 있습니다.

기상관측소 명을 보려면 표시 위로 마우스를 이동하세요.

날씨 관측과 예보를 보려면 클릭하세요.

지도 변경 : 확대하려면 엑스 표시가 있는 녹색 버튼, 축소하려면 빼기 표시가 있는 녹색 버튼, 다음 페이지의 지도를 보려면 녹색 화살표를 클릭하세요.


METAR-TAF: